Hill, NH

10:41 AM EST on February 10, 2016 (GMT -0500)
Heavens Plateau | | Change Station
CLOSE
Current Station
Personal Weather Station
Location: Danbury, NH
Elevation: 1020 ft
Nearby Weather Stations

Elev 1020 ft 43.52 °N, 71.82 °W | Updated 16 seconds ago

Overcast
Overcast
25.9 °F
Feels Like 26 °F
N
1.0
Wind Variable Wind from West
Gusts 3.0 mph

Today
High -- | Low -- °F
--% Chance of Precip.
Yesterday
High -- | Low -- °F
Precip. -- in
Pressure 29.57 in
Visibility 2.5 miles
Clouds Mostly Cloudy 1200 ft
Overcast 2000 ft
Windchill 26 °F
Dew Point 22 °F
Humidity 84%
Rainfall 0.00 in
Snow Depth Not available.
6:53 AM 5:10 PM
Waxing Crescent, 6% visible
METAR K1P1 101535Z AUTO 00000KT 2 1/2SM UP BKN012 OVC020 M03/M06 A2957 RMK AO2 T10331057
Pressure 29.57 in
Visibility 2.5 miles
Clouds Mostly Cloudy 1200 ft
Overcast 2000 ft
Windchill 26 °F
Dew Point 22 °F
Humidity 84%
Rainfall 0.00 in
Snow Depth Not available.
6:53 AM 5:10 PM
Waxing Crescent, 6% visible
METAR K1P1 101535Z AUTO 00000KT 2 1/2SM UP BKN012 OVC020 M03/M06 A2957 RMK AO2 T10331057

10-Day Weather Forecast

Almanac

Astronomy

Feb. 10, 2016 Rise Set
Actual Time
Civil Twilight
Nautical Twilight
Astronomical Twilight
Moon
Length of Visible Light
Length of Day
Tomorrow will be .
, % of the Moon is Illuminated

Today's Extremes

State Highs State Lows

Community

WunderPhotos

Upload Photos

1,891,863 photos uploaded!

WunderBlog® & News

Nearby

Air Quality

  Air Quality AQ Index Pollutant
Not available.

Snow Depth

Station Depth Elevation

Earthquake Activity

City Distance Mag. Time & Date
Minimum magnitude displayed is 2.5.

Coastal Water Temperatures

Place Temperature

Stations

Nearby Weather Stations

Station Location Temp. Windchill Dew Point Humidity Wind Precip. Elev Updated Type
                   

Watches & Warnings

There are currently no watches in effect.